createdAt,value
2022-09-09T00:02:19.047Z,84.51
2022-09-09T00:04:55.428Z,84.86
2022-09-09T00:07:25.142Z,85.06
2022-09-09T00:10:19.148Z,84.76
2022-09-09T00:12:58.357Z,85.00
2022-09-09T00:15:31.081Z,85.00
2022-09-09T00:18:03.059Z,84.98
2022-09-09T00:20:59.258Z,84.85
2022-09-09T00:23:33.902Z,85.25
2022-09-09T00:26:11.463Z,84.97
2022-09-09T00:28:50.596Z,85.12
2022-09-09T00:31:23.984Z,85.20
2022-09-09T00:33:53.359Z,85.41
2022-09-09T00:36:27.319Z,85.22
2022-09-09T00:39:00.699Z,85.21
2022-09-09T00:41:27.134Z,85.30
2022-09-09T00:44:04.407Z,85.37
2022-09-09T00:46:48.002Z,85.44
2022-09-09T00:49:36.991Z,85.29
2022-09-09T00:52:27.393Z,85.13
2022-09-09T00:54:59.085Z,85.36
2022-09-09T00:57:36.766Z,85.17
2022-09-09T01:00:06.089Z,85.40
2022-09-09T01:02:42.787Z,85.34
2022-09-09T01:05:18.667Z,85.42
2022-09-09T01:07:49.954Z,85.66
2022-09-09T01:10:31.582Z,85.56
2022-09-09T01:13:03.784Z,85.47
2022-09-09T01:15:33.788Z,85.63
2022-09-09T01:18:06.979Z,85.68
2022-09-09T01:20:48.936Z,85.60
2022-09-09T01:23:47.287Z,85.43
2022-09-09T01:26:42.873Z,85.66
2022-09-09T01:29:17.205Z,85.86
2022-09-09T01:32:24.231Z,85.63
2022-09-09T01:34:52.452Z,85.67
2022-09-09T01:37:19.026Z,85.83
2022-09-09T01:39:46.097Z,86.09
2022-09-09T01:42:18.375Z,86.01
2022-09-09T01:44:44.876Z,86.11
2022-09-09T01:47:11.663Z,86.00
2022-09-09T01:49:38.184Z,86.33
2022-09-09T01:52:04.822Z,86.18
2022-09-09T01:54:33.584Z,86.44
2022-09-09T01:57:34.598Z,86.59
2022-09-09T02:00:14.442Z,86.63
2022-09-09T02:03:04.656Z,86.45
2022-09-09T02:05:43.658Z,86.13
2022-09-09T02:08:22.235Z,86.48
2022-09-09T02:10:58.363Z,86.38
2022-09-09T02:13:26.230Z,86.67
2022-09-09T02:16:20.220Z,86.63
2022-09-09T02:18:56.806Z,86.75
2022-09-09T02:21:25.647Z,86.75
2022-09-09T02:23:54.132Z,86.89
2022-09-09T02:26:22.680Z,86.86
2022-09-09T02:28:51.224Z,86.97
2022-09-09T02:31:25.647Z,86.96
2022-09-09T02:33:59.927Z,86.84
2022-09-09T02:36:30.484Z,86.94
2022-09-09T02:38:57.388Z,86.81
2022-09-09T02:41:37.559Z,86.84
2022-09-09T02:44:09.693Z,86.90
2022-09-09T02:46:42.288Z,87.08
2022-09-09T02:49:36.749Z,87.12
2022-09-09T02:52:07.359Z,87.23
2022-09-09T02:54:38.817Z,87.14
2022-09-09T02:57:11.894Z,87.34
2022-09-09T02:59:42.800Z,87.47
2022-09-09T03:02:12.304Z,87.41
2022-09-09T03:04:40.172Z,87.38
2022-09-09T03:07:06.704Z,87.44
2022-09-09T03:09:35.981Z,87.43
2022-09-09T03:12:05.691Z,87.72
2022-09-09T03:14:32.253Z,87.31
2022-09-09T03:17:01.769Z,87.29
2022-09-09T03:19:28.848Z,87.43
2022-09-09T03:21:55.434Z,87.27
2022-09-09T03:24:23.944Z,87.36
2022-09-09T03:26:56.829Z,87.26
2022-09-09T03:29:23.324Z,87.51
2022-09-09T03:31:50.090Z,87.45
2022-09-09T03:34:16.616Z,87.32
2022-09-09T03:36:43.389Z,87.48
2022-09-09T03:39:09.988Z,87.21
2022-09-09T03:41:39.487Z,87.47
2022-09-09T03:44:08.506Z,87.22
2022-09-09T03:46:35.049Z,87.40
2022-09-09T03:49:04.000Z,87.44
2022-09-09T03:51:30.511Z,87.25
2022-09-09T03:53:59.124Z,87.22
2022-09-09T03:56:25.849Z,87.56
2022-09-09T03:58:55.106Z,87.72
2022-09-09T04:01:21.734Z,87.52
2022-09-09T04:03:51.481Z,87.63
2022-09-09T04:06:18.892Z,87.79
2022-09-09T04:08:46.248Z,87.90
2022-09-09T04:11:15.086Z,87.99
2022-09-09T04:13:42.569Z,88.01
2022-09-09T04:16:11.391Z,88.25
2022-09-09T04:18:40.537Z,88.27
2022-09-09T04:21:09.870Z,88.26
2022-09-09T04:23:37.114Z,88.70
2022-09-09T04:26:07.217Z,88.28
2022-09-09T04:28:38.809Z,88.52
2022-09-09T04:31:07.842Z,88.61
2022-09-09T04:33:40.174Z,88.80
2022-09-09T04:36:10.252Z,88.40
2022-09-09T04:38:39.386Z,88.44
2022-09-09T04:41:07.151Z,88.40
2022-09-09T04:43:34.242Z,88.20
2022-09-09T04:46:03.484Z,88.59
2022-09-09T04:48:30.105Z,88.75
2022-09-09T04:51:02.350Z,88.73
2022-09-09T04:53:29.117Z,88.88
2022-09-09T04:56:04.580Z,89.25
2022-09-09T04:58:31.625Z,89.06
2022-09-09T05:01:25.581Z,89.11
2022-09-09T05:03:54.468Z,88.80
2022-09-09T05:06:22.926Z,89.06
2022-09-09T05:08:50.581Z,89.00
2022-09-09T05:11:25.181Z,89.21
2022-09-09T05:13:52.179Z,89.11
2022-09-09T05:16:19.486Z,88.92
2022-09-09T05:18:49.986Z,89.08
2022-09-09T05:21:20.927Z,88.98
2022-09-09T05:23:47.844Z,88.51
2022-09-09T05:26:19.117Z,88.49
2022-09-09T05:28:46.031Z,88.52
2022-09-09T05:31:16.393Z,88.59
2022-09-09T05:33:46.950Z,88.65
2022-09-09T05:36:15.737Z,88.47
2022-09-09T05:38:42.935Z,88.27
2022-09-09T05:41:12.638Z,88.30
2022-09-09T05:43:41.646Z,87.77
2022-09-09T05:46:15.896Z,87.42
2022-09-09T05:48:47.798Z,86.94
2022-09-09T05:51:18.788Z,86.42
2022-09-09T05:53:47.338Z,86.04
2022-09-09T05:56:20.078Z,85.54
2022-09-09T05:58:50.712Z,85.14
2022-09-09T06:01:25.542Z,84.36
2022-09-09T06:03:55.503Z,79.75
2022-09-09T06:06:32.739Z,75.18
2022-09-09T06:09:00.725Z,75.60
2022-09-09T06:11:35.643Z,77.49
2022-09-09T06:14:02.656Z,78.87
2022-09-09T06:16:36.284Z,79.89
2022-09-09T06:19:05.904Z,80.95
2022-09-09T06:21:36.098Z,81.39
2022-09-09T06:24:03.014Z,81.27
2022-09-09T06:26:34.969Z,81.34
2022-09-09T06:29:07.402Z,81.07
2022-09-09T06:31:38.841Z,80.93
2022-09-09T06:34:09.117Z,81.56
2022-09-09T06:36:38.042Z,81.97
2022-09-09T06:39:07.289Z,82.54
2022-09-09T06:41:35.432Z,83.25
2022-09-09T06:44:02.152Z,82.46
2022-09-09T06:46:32.027Z,81.70
2022-09-09T06:48:59.803Z,80.66
2022-09-09T06:51:29.851Z,78.71
2022-09-09T06:54:03.940Z,75.95
2022-09-09T06:56:36.004Z,76.24
2022-09-09T06:59:09.467Z,70.49
2022-09-09T07:01:42.041Z,64.70
2022-09-09T07:04:10.056Z,58.68
2022-09-09T07:06:38.931Z,54.52
2022-09-09T07:09:13.885Z,54.10
2022-09-09T07:11:46.110Z,55.36
2022-09-09T07:14:16.194Z,57.84
2022-09-09T07:16:43.522Z,60.64
2022-09-09T07:19:13.635Z,60.64
2022-09-09T07:21:46.247Z,63.18
2022-09-09T07:24:13.838Z,65.01
2022-09-09T07:26:41.237Z,65.85
2022-09-09T07:29:08.999Z,67.69
2022-09-09T07:31:39.785Z,68.64
2022-09-09T07:34:06.562Z,70.13
2022-09-09T07:36:37.509Z,70.45
2022-09-09T07:39:10.116Z,70.26
2022-09-09T07:41:47.622Z,71.72
2022-09-09T07:44:25.864Z,72.75
2022-09-09T07:46:54.876Z,73.69
2022-09-09T07:49:28.556Z,73.92
2022-09-09T07:51:57.627Z,73.22
2022-09-09T07:54:24.681Z,73.30
2022-09-09T07:56:54.541Z,73.23
2022-09-09T07:59:21.295Z,73.30
2022-09-09T08:01:54.430Z,73.02
2022-09-09T08:04:23.305Z,72.08
2022-09-09T08:06:55.627Z,71.01
2022-09-09T08:09:30.063Z,65.19
2022-09-09T08:12:00.008Z,65.11
2022-09-09T08:14:34.035Z,66.00
2022-09-09T08:17:00.802Z,67.93
2022-09-09T08:19:30.296Z,69.81
2022-09-09T08:21:56.898Z,70.17
2022-09-09T08:24:24.131Z,70.93
2022-09-09T08:26:51.173Z,71.60
2022-09-09T08:29:18.594Z,71.65
2022-09-09T08:31:51.823Z,71.81
2022-09-09T08:34:21.534Z,72.08
2022-09-09T08:36:49.749Z,72.25
2022-09-09T08:39:20.144Z,72.08
2022-09-09T08:42:05.979Z,72.46
2022-09-09T08:44:35.423Z,72.74
2022-09-09T08:47:51.981Z,72.73
2022-09-09T08:50:34.347Z,72.49
2022-09-09T08:53:09.999Z,72.60
2022-09-09T08:55:44.436Z,72.77
2022-09-09T08:58:17.791Z,73.01
2022-09-09T09:00:53.710Z,73.19
2022-09-09T09:03:28.210Z,72.93
2022-09-09T09:06:03.158Z,73.41
2022-09-09T09:08:52.692Z,73.56
2022-09-09T09:11:19.474Z,73.40
2022-09-09T09:13:55.112Z,73.68
2022-09-09T09:16:42.361Z,73.48
2022-09-09T09:19:18.070Z,73.10
2022-09-09T09:21:49.113Z,72.83
2022-09-09T09:24:23.346Z,72.91
2022-09-09T09:26:50.544Z,73.17
2022-09-09T09:29:22.809Z,73.20
2022-09-09T09:31:55.755Z,73.17
2022-09-09T09:34:25.450Z,73.24
2022-09-09T09:36:56.572Z,72.84
2022-09-09T09:42:26.304Z,73.01
2022-09-09T09:44:55.266Z,73.29
2022-09-09T09:47:24.422Z,73.63
2022-09-09T09:50:03.408Z,74.09
2022-09-09T09:52:35.971Z,74.52
2022-09-09T09:55:08.159Z,74.79
2022-09-09T09:57:35.468Z,75.08
2022-09-09T10:00:18.461Z,75.52
2022-09-09T10:02:46.464Z,75.57
2022-09-09T10:05:36.065Z,75.59
2022-09-09T10:08:06.716Z,75.54
2022-09-09T10:11:12.092Z,75.76
2022-09-09T10:14:03.937Z,75.97
2022-09-09T10:17:04.484Z,76.23
2022-09-09T10:20:11.383Z,76.14
2022-09-09T10:22:45.961Z,76.17
2022-09-09T10:25:23.593Z,76.17
2022-09-09T10:28:06.466Z,77.59
2022-09-09T10:30:49.967Z,77.08
2022-09-09T10:33:57.361Z,77.34
2022-09-09T10:36:31.529Z,77.50
2022-09-09T10:39:33.707Z,77.87
2022-09-09T10:42:10.062Z,77.59
2022-09-09T10:44:41.349Z,77.44
2022-09-09T10:47:15.608Z,77.42
2022-09-09T10:50:02.140Z,77.20
2022-09-09T10:52:49.125Z,77.25
2022-09-09T10:55:23.835Z,77.30
2022-09-09T10:57:56.910Z,77.45
2022-09-09T11:00:44.007Z,76.92
2022-09-09T11:03:20.572Z,76.15
2022-09-09T11:05:53.597Z,75.86
2022-09-09T11:08:26.332Z,75.72
2022-09-09T11:11:08.286Z,75.88
2022-09-09T11:13:53.236Z,75.53
2022-09-09T11:16:31.542Z,75.63
2022-09-09T11:19:10.793Z,76.23
2022-09-09T11:24:44.228Z,74.77
2022-09-09T11:28:08.072Z,74.25
2022-09-09T11:30:57.388Z,74.40
2022-09-09T11:33:59.731Z,74.81
2022-09-09T11:36:44.033Z,75.64
2022-09-09T11:39:33.243Z,76.41
2022-09-09T11:42:18.390Z,76.42
2022-09-09T11:44:46.942Z,76.37
2022-09-09T11:47:33.572Z,75.85
2022-09-09T11:50:17.806Z,75.73
2022-09-09T11:52:51.156Z,75.01
2022-09-09T11:55:35.075Z,74.94
2022-09-09T11:58:03.751Z,75.66
2022-09-09T12:00:48.244Z,75.78
2022-09-09T12:03:54.707Z,75.99
2022-09-09T12:06:33.491Z,75.94
2022-09-09T12:09:33.069Z,75.64
2022-09-09T12:12:44.213Z,75.43
2022-09-09T12:15:14.523Z,75.90
2022-09-09T12:17:47.578Z,76.55
2022-09-09T12:20:26.318Z,75.92
2022-09-09T12:22:55.573Z,75.01
2022-09-09T12:25:37.282Z,74.71
2022-09-09T12:28:12.470Z,73.57
2022-09-09T12:31:10.955Z,73.83
2022-09-09T12:33:47.398Z,73.61
2022-09-09T12:36:35.835Z,73.15
2022-09-09T12:39:25.255Z,73.32
2022-09-09T12:42:01.747Z,72.32
2022-09-09T12:44:33.814Z,72.22
2022-09-09T12:47:12.025Z,72.48
2022-09-09T12:49:44.464Z,71.91
2022-09-09T12:52:29.397Z,70.97
2022-09-09T12:55:05.170Z,71.28
2022-09-09T12:57:39.857Z,71.59
2022-09-09T13:00:26.831Z,72.58
2022-09-09T13:02:56.730Z,72.27
2022-09-09T13:05:26.242Z,72.39
2022-09-09T13:08:03.385Z,72.45
2022-09-09T13:10:49.866Z,71.89
2022-09-09T13:13:28.214Z,71.88
2022-09-09T13:16:25.836Z,71.30
2022-09-09T13:18:54.601Z,70.85
2022-09-09T13:21:38.101Z,70.12
2022-09-09T13:24:33.062Z,69.57
2022-09-09T13:27:24.058Z,68.17
2022-09-09T13:30:00.057Z,68.19
2022-09-09T13:32:28.658Z,68.38
2022-09-09T13:35:01.122Z,68.80
2022-09-09T13:37:37.297Z,68.81
2022-09-09T13:40:19.672Z,69.02
2022-09-09T13:42:46.915Z,68.81
2022-09-09T13:45:27.119Z,68.76
2022-09-09T13:47:57.460Z,69.27
2022-09-09T13:50:32.240Z,69.36
2022-09-09T13:53:01.196Z,69.44
2022-09-09T13:55:32.149Z,69.88
2022-09-09T13:58:06.832Z,70.43
2022-09-09T14:00:39.553Z,70.92
2022-09-09T14:03:09.782Z,70.64
2022-09-09T14:05:39.172Z,70.71
2022-09-09T14:08:09.753Z,70.31
2022-09-09T14:10:40.363Z,70.14
2022-09-09T14:13:10.362Z,68.70
2022-09-09T14:15:59.430Z,67.82
2022-09-09T14:18:27.738Z,67.65
2022-09-09T14:20:58.165Z,67.70
2022-09-09T14:23:25.397Z,68.20
2022-09-09T14:25:52.862Z,68.07
2022-09-09T14:28:25.824Z,68.26
2022-09-09T14:31:06.591Z,68.22
2022-09-09T14:33:36.095Z,68.93
2022-09-09T14:36:05.828Z,69.01
2022-09-09T14:38:39.614Z,69.51
2022-09-09T14:41:20.840Z,69.77
2022-09-09T14:43:50.559Z,69.16
2022-09-09T14:46:20.937Z,68.50
2022-09-09T14:48:51.817Z,68.65
2022-09-09T14:51:26.942Z,68.51
2022-09-09T14:53:59.407Z,68.53
2022-09-09T14:56:31.914Z,69.02
2022-09-09T14:59:02.544Z,69.63
2022-09-09T15:01:36.663Z,69.47
2022-09-09T15:04:09.143Z,70.30
2022-09-09T15:06:43.300Z,70.07
2022-09-09T15:09:16.685Z,70.99
2022-09-09T15:11:58.319Z,71.88
2022-09-09T15:14:31.119Z,73.18
2022-09-09T15:17:13.321Z,74.27
2022-09-09T15:19:43.079Z,75.07
2022-09-09T15:22:12.164Z,75.44
2022-09-09T15:24:38.657Z,75.98
2022-09-09T15:27:07.477Z,76.25
2022-09-09T15:29:33.999Z,76.58
2022-09-09T15:32:05.047Z,76.88
2022-09-09T15:34:34.042Z,76.83
2022-09-09T15:37:01.054Z,76.93
2022-09-09T15:39:27.921Z,77.24
2022-09-09T15:41:54.963Z,77.34
2022-09-09T15:44:21.836Z,77.64
2022-09-09T15:46:57.166Z,77.89
2022-09-09T15:49:28.706Z,78.25
2022-09-09T15:52:00.014Z,78.48
2022-09-09T15:54:27.534Z,77.98
2022-09-09T15:56:57.189Z,78.14
2022-09-09T15:59:29.937Z,78.19
2022-09-09T16:01:57.338Z,77.94
2022-09-09T16:04:25.669Z,77.51
2022-09-09T16:07:02.847Z,77.62
2022-09-09T16:09:30.856Z,77.66
2022-09-09T16:12:07.374Z,77.82
2022-09-09T16:14:36.905Z,77.39
2022-09-09T16:17:07.547Z,77.92
2022-09-09T16:19:35.522Z,77.98
2022-09-09T16:22:05.712Z,77.72
2022-09-09T16:24:32.184Z,78.17
2022-09-09T16:26:58.860Z,78.20
2022-09-09T16:29:28.310Z,78.50
2022-09-09T16:32:02.731Z,78.61
2022-09-09T16:34:35.135Z,78.91
2022-09-09T16:37:03.119Z,79.09
2022-09-09T16:39:29.895Z,79.20
2022-09-09T16:41:56.566Z,79.39
2022-09-09T16:44:23.408Z,79.43
2022-09-09T16:46:58.125Z,79.74
2022-09-09T16:49:28.568Z,79.76
2022-09-09T16:52:01.073Z,79.92
2022-09-09T16:54:29.022Z,80.07
2022-09-09T16:56:57.833Z,80.25
2022-09-09T16:59:25.953Z,80.21
2022-09-09T17:01:55.270Z,80.48
2022-09-09T17:04:29.988Z,80.56
2022-09-09T17:06:58.750Z,80.60
2022-09-09T17:09:30.703Z,80.57
2022-09-09T17:12:03.408Z,80.08
2022-09-09T17:14:32.798Z,79.79
2022-09-09T17:17:19.233Z,79.58
2022-09-09T17:19:51.901Z,79.65
2022-09-09T17:22:28.049Z,80.23
2022-09-09T17:24:58.344Z,80.16
2022-09-09T17:27:35.638Z,80.18
2022-09-09T17:30:03.602Z,80.04
2022-09-09T17:32:31.391Z,80.34
2022-09-09T17:34:59.282Z,80.51
2022-09-09T17:37:30.579Z,80.44
2022-09-09T17:40:03.119Z,80.64
2022-09-09T17:42:33.442Z,80.44
2022-09-09T17:45:03.369Z,80.45
2022-09-09T17:47:32.795Z,80.60
2022-09-09T17:50:02.654Z,80.82
2022-09-09T17:52:33.894Z,81.09
2022-09-09T17:55:03.152Z,81.42
2022-09-09T17:57:31.457Z,81.66
2022-09-09T18:00:00.127Z,81.75
2022-09-09T18:02:29.033Z,81.75
2022-09-09T18:04:55.915Z,81.53
2022-09-09T18:07:24.773Z,81.58
2022-09-09T18:09:53.699Z,81.62
2022-09-09T18:12:22.511Z,81.84
2022-09-09T18:14:50.767Z,82.00
2022-09-09T18:17:20.002Z,82.32
2022-09-09T18:19:46.529Z,82.18
2022-09-09T18:22:13.188Z,82.09
2022-09-09T18:24:40.231Z,82.78
2022-09-09T18:27:06.969Z,83.19
2022-09-09T18:29:34.424Z,82.93
2022-09-09T18:32:00.948Z,83.62
2022-09-09T18:34:30.754Z,83.79
2022-09-09T18:36:57.539Z,83.96
2022-09-09T18:39:27.781Z,84.08
2022-09-09T18:42:00.696Z,84.33
2022-09-09T18:44:31.337Z,84.31
2022-09-09T18:46:58.391Z,84.33
2022-09-09T18:49:26.472Z,84.51
2022-09-09T18:51:53.427Z,84.59
2022-09-09T18:54:21.374Z,84.74
2022-09-09T18:56:48.296Z,84.69
2022-09-09T18:59:19.676Z,80.95
2022-09-09T19:01:51.082Z,81.32
2022-09-09T19:04:18.915Z,80.90
2022-09-09T19:06:49.169Z,80.49
2022-09-09T19:09:18.197Z,82.59
2022-09-09T19:11:46.115Z,82.56
2022-09-09T19:14:15.384Z,82.58
2022-09-09T19:16:45.493Z,82.45
2022-09-09T19:19:20.303Z,82.68
2022-09-09T19:21:52.613Z,82.67
2022-09-09T19:24:21.451Z,82.39
2022-09-09T19:26:52.001Z,82.58
2022-09-09T19:29:30.653Z,82.67
2022-09-09T19:32:49.223Z,82.79
2022-09-09T19:34:46.330Z,82.79
2022-09-09T19:37:16.493Z,83.18
2022-09-09T19:39:46.148Z,83.19
2022-09-09T19:42:15.154Z,83.46
2022-09-09T19:44:41.755Z,83.74
2022-09-09T19:47:10.892Z,83.49
2022-09-09T19:49:43.899Z,83.19
2022-09-09T19:52:17.866Z,84.65
2022-09-09T19:54:45.725Z,85.49
2022-09-09T19:57:12.507Z,85.52
2022-09-09T19:59:39.296Z,85.43
2022-09-09T20:02:06.061Z,86.67
2022-09-09T20:04:34.177Z,86.69
2022-09-09T20:07:00.660Z,87.46
2022-09-09T20:09:28.985Z,87.20
2022-09-09T20:11:55.503Z,86.92
2022-09-09T20:14:22.279Z,87.52
2022-09-09T20:16:51.104Z,87.09
2022-09-09T20:19:21.092Z,86.97
2022-09-09T20:21:49.637Z,86.26
2022-09-09T20:24:19.688Z,86.24
2022-09-09T20:26:48.969Z,86.81
2022-09-09T20:29:18.254Z,87.99
2022-09-09T20:31:45.509Z,87.70
2022-09-09T20:34:14.943Z,87.97
2022-09-09T20:36:42.549Z,88.28
2022-09-09T20:39:17.474Z,88.10
2022-09-09T20:41:46.754Z,88.20
2022-09-09T20:44:24.356Z,88.26
2022-09-09T20:46:57.080Z,88.51
2022-09-09T20:49:26.281Z,88.52
2022-09-09T20:51:53.780Z,88.71
2022-09-09T20:54:25.180Z,88.54
2022-09-09T20:56:53.498Z,88.94
2022-09-09T20:59:22.453Z,89.13
2022-09-09T21:01:49.583Z,89.17
2022-09-09T21:04:19.705Z,89.20
2022-09-09T21:06:50.390Z,89.34
2022-09-09T21:09:17.925Z,89.36
2022-09-09T21:11:44.520Z,89.24
2022-09-09T21:14:11.091Z,89.36
2022-09-09T21:16:40.121Z,89.43
2022-09-09T21:19:09.555Z,89.42
2022-09-09T21:21:36.343Z,89.45
2022-09-09T21:24:03.389Z,89.83
2022-09-09T21:26:30.024Z,89.96
2022-09-09T21:28:56.736Z,89.95
2022-09-09T21:31:28.352Z,89.74
2022-09-09T21:33:56.682Z,90.20
2022-09-09T21:36:23.610Z,89.74
2022-09-09T21:38:50.544Z,89.42
2022-09-09T21:41:17.570Z,88.69
2022-09-09T21:43:46.704Z,88.60
2022-09-09T21:46:18.202Z,88.37
2022-09-09T21:48:45.327Z,88.50
2022-09-09T21:51:17.117Z,88.58
2022-09-09T21:53:44.464Z,88.50
2022-09-09T21:56:13.600Z,88.64
2022-09-09T21:58:43.437Z,88.68
2022-09-09T22:01:14.862Z,88.68
2022-09-09T22:03:44.749Z,88.50
2022-09-09T22:06:16.858Z,88.52
2022-09-09T22:08:44.853Z,88.78
2022-09-09T22:11:14.653Z,88.90
2022-09-09T22:13:42.617Z,88.77
2022-09-09T22:16:12.202Z,88.96
2022-09-09T22:18:41.682Z,89.04
2022-09-09T22:21:15.767Z,88.95
2022-09-09T22:23:47.970Z,88.89
2022-09-09T22:26:15.259Z,89.13
2022-09-09T22:28:41.847Z,88.85
2022-09-09T22:31:11.356Z,89.06
2022-09-09T22:33:40.382Z,89.00
2022-09-09T22:36:07.450Z,89.07
2022-09-09T22:38:39.556Z,90.10
2022-09-09T22:41:07.948Z,90.19
2022-09-09T22:43:36.850Z,89.91
2022-09-09T22:46:04.304Z,89.99
2022-09-09T22:48:39.836Z,90.20
2022-09-09T22:51:14.093Z,90.15
2022-09-09T22:53:44.625Z,90.13
2022-09-09T22:56:18.667Z,90.43
2022-09-09T22:58:48.008Z,90.01
2022-09-09T23:01:21.008Z,89.98
2022-09-09T23:03:49.044Z,89.61
2022-09-09T23:06:21.998Z,89.82
2022-09-09T23:08:51.959Z,90.16
2022-09-09T23:11:21.647Z,90.04
2022-09-09T23:13:53.092Z,90.01
2022-09-09T23:16:35.343Z,89.95
2022-09-09T23:19:02.180Z,89.89
2022-09-09T23:21:30.469Z,89.75
2022-09-09T23:23:58.832Z,89.79
2022-09-09T23:26:26.697Z,89.55
2022-09-09T23:28:58.237Z,89.33
2022-09-09T23:31:26.462Z,89.57
2022-09-09T23:33:54.465Z,89.96
2022-09-09T23:36:24.935Z,90.22
2022-09-09T23:38:53.534Z,90.18
2022-09-09T23:41:21.301Z,90.12
2022-09-09T23:43:48.791Z,90.34
2022-09-09T23:46:20.425Z,89.90
2022-09-09T23:48:51.579Z,89.99
2022-09-09T23:51:23.689Z,89.96
2022-09-09T23:53:52.991Z,89.92
2022-09-09T23:56:30.050Z,90.28
2022-09-09T23:58:56.817Z,90.43
